createdAt,value
2022-09-07T00:00:15.460Z,19.8
2022-09-07T00:01:18.317Z,19.8
2022-09-07T00:02:22.014Z,19.7
2022-09-07T00:03:25.552Z,19.7
2022-09-07T00:04:29.760Z,19.7
2022-09-07T00:05:33.234Z,19.7
2022-09-07T00:06:36.310Z,19.7
2022-09-07T00:07:39.100Z,19.7
2022-09-07T00:08:41.706Z,19.7
2022-09-07T00:09:44.693Z,19.7
2022-09-07T00:10:48.143Z,19.7
2022-09-07T00:11:51.211Z,19.7
2022-09-07T00:12:54.453Z,19.7
2022-09-07T00:13:57.612Z,19.7
2022-09-07T00:15:00.486Z,19.7
2022-09-07T00:16:03.259Z,19.7
2022-09-07T00:17:06.195Z,19.6
2022-09-07T00:18:09.342Z,19.7
2022-09-07T00:19:12.333Z,19.7
2022-09-07T00:20:14.930Z,19.6
2022-09-07T00:21:17.694Z,19.6
2022-09-07T00:22:20.292Z,19.6
2022-09-07T00:23:23.075Z,19.6
2022-09-07T00:24:25.591Z,19.6
2022-09-07T00:25:32.672Z,19.6
2022-09-07T00:26:36.133Z,19.5
2022-09-07T00:27:38.643Z,19.5
2022-09-07T00:28:41.908Z,19.5
2022-09-07T00:29:44.778Z,19.5
2022-09-07T00:30:47.735Z,19.4
2022-09-07T00:31:51.501Z,19.5
2022-09-07T00:32:54.242Z,19.4
2022-09-07T00:33:56.948Z,19.4
2022-09-07T00:35:00.327Z,19.4
2022-09-07T00:36:02.919Z,19.4
2022-09-07T00:37:05.992Z,19.4
2022-09-07T00:38:08.812Z,19.3
2022-09-07T00:39:11.962Z,19.3
2022-09-07T00:40:14.751Z,19.3
2022-09-07T00:41:18.451Z,19.3
2022-09-07T00:42:22.464Z,19.3
2022-09-07T00:43:25.295Z,19.3
2022-09-07T00:44:28.364Z,19.3
2022-09-07T00:45:31.631Z,19.3
2022-09-07T00:46:35.126Z,19.3
2022-09-07T00:47:38.050Z,19.2
2022-09-07T00:48:40.923Z,19.2
2022-09-07T00:49:44.361Z,19.2
2022-09-07T00:50:46.966Z,19.2
2022-09-07T00:51:50.400Z,19.2
2022-09-07T00:52:53.477Z,19.2
2022-09-07T00:53:56.292Z,19.2
2022-09-07T00:54:59.435Z,19.1
2022-09-07T00:56:02.126Z,19.1
2022-09-07T00:57:04.992Z,19.1
2022-09-07T00:58:07.784Z,19.1
2022-09-07T00:59:10.672Z,19.1
2022-09-07T01:00:13.460Z,19.1
2022-09-07T01:01:16.804Z,19.1
2022-09-07T01:02:20.399Z,19.1
2022-09-07T01:03:23.820Z,19.1
2022-09-07T01:04:27.268Z,19.1
2022-09-07T01:05:30.412Z,19.1
2022-09-07T01:06:32.648Z,19
2022-09-07T01:07:35.787Z,19.1
2022-09-07T01:08:38.276Z,19.1
2022-09-07T01:09:41.410Z,19.1
2022-09-07T01:10:44.411Z,19
2022-09-07T01:11:47.414Z,19
2022-09-07T01:12:49.927Z,19
2022-09-07T01:13:52.441Z,19
2022-09-07T01:14:54.964Z,19
2022-09-07T01:15:57.995Z,19
2022-09-07T01:17:01.542Z,19
2022-09-07T01:18:04.413Z,19
2022-09-07T01:19:07.396Z,19
2022-09-07T01:20:10.826Z,19
2022-09-07T01:21:14.168Z,19
2022-09-07T01:22:17.045Z,19
2022-09-07T01:23:20.035Z,19
2022-09-07T01:24:23.109Z,19
2022-09-07T01:25:25.981Z,18.9
2022-09-07T01:26:28.772Z,18.9
2022-09-07T01:27:31.928Z,18.9
2022-09-07T01:28:33.959Z,18.9
2022-09-07T01:29:37.057Z,18.9
2022-09-07T01:30:40.426Z,18.9
2022-09-07T01:31:43.085Z,18.9
2022-09-07T01:32:45.714Z,18.9
2022-09-07T01:33:48.598Z,18.8
2022-09-07T01:34:51.956Z,18.8
2022-09-07T01:35:55.013Z,18.8
2022-09-07T01:36:57.324Z,18.8
2022-09-07T01:38:00.690Z,18.8
2022-09-07T01:39:02.926Z,18.8
2022-09-07T01:40:06.050Z,18.8
2022-09-07T01:41:08.952Z,18.8
2022-09-07T01:42:11.270Z,18.8
2022-09-07T01:43:14.630Z,18.7
2022-09-07T01:44:17.499Z,18.7
2022-09-07T01:45:20.457Z,18.7
2022-09-07T01:46:24.029Z,18.7
2022-09-07T01:47:27.079Z,18.7
2022-09-07T01:48:30.234Z,18.7
2022-09-07T01:49:33.547Z,18.7
2022-09-07T01:50:37.368Z,18.7
2022-09-07T01:51:39.601Z,18.7
2022-09-07T01:52:42.666Z,18.7
2022-09-07T01:53:45.273Z,18.7
2022-09-07T01:54:48.950Z,18.7
2022-09-07T01:55:51.830Z,18.7
2022-09-07T01:56:54.622Z,18.7
2022-09-07T01:57:57.511Z,18.7
2022-09-07T01:59:00.735Z,18.7
2022-09-07T02:00:03.519Z,18.7
2022-09-07T02:01:06.178Z,18.7
2022-09-07T02:02:09.435Z,18.6
2022-09-07T02:03:12.697Z,18.7
2022-09-07T02:04:15.383Z,18.6
2022-09-07T02:05:18.715Z,18.6
2022-09-07T02:06:21.637Z,18.6
2022-09-07T02:07:24.421Z,18.6
2022-09-07T02:08:27.669Z,18.6
2022-09-07T02:09:30.357Z,18.6
2022-09-07T02:10:33.216Z,18.6
2022-09-07T02:11:36.081Z,18.6
2022-09-07T02:12:39.146Z,18.6
2022-09-07T02:13:42.214Z,18.6
2022-09-07T02:14:53.012Z,18.6
2022-09-07T02:15:56.521Z,18.6
2022-09-07T02:16:59.362Z,18.6
2022-09-07T02:18:02.061Z,18.6
2022-09-07T02:19:05.124Z,18.6
2022-09-07T02:20:08.111Z,18.6
2022-09-07T02:21:11.259Z,18.6
2022-09-07T02:22:14.694Z,18.6
2022-09-07T02:23:17.969Z,18.6
2022-09-07T02:24:20.759Z,18.6
2022-09-07T02:25:23.827Z,18.6
2022-09-07T02:26:26.707Z,18.5
2022-09-07T02:27:29.579Z,18.6
2022-09-07T02:28:33.387Z,18.5
2022-09-07T02:29:36.530Z,18.5
2022-09-07T02:30:39.616Z,18.5
2022-09-07T02:31:43.156Z,18.5
2022-09-07T02:32:45.398Z,18.5
2022-09-07T02:33:48.852Z,18.5
2022-09-07T02:34:51.932Z,18.5
2022-09-07T02:35:54.448Z,18.5
2022-09-07T02:36:57.877Z,18.5
2022-09-07T02:38:01.031Z,18.5
2022-09-07T02:39:04.451Z,18.5
2022-09-07T02:40:07.549Z,18.5
2022-09-07T02:41:10.311Z,18.5
2022-09-07T02:42:13.661Z,18.5
2022-09-07T02:43:16.880Z,18.5
2022-09-07T02:44:19.461Z,18.4
2022-09-07T02:45:22.519Z,18.4
2022-09-07T02:46:25.832Z,18.4
2022-09-07T02:47:29.287Z,18.4
2022-09-07T02:48:32.280Z,18.5
2022-09-07T02:49:35.152Z,18.5
2022-09-07T02:50:38.495Z,18.5
2022-09-07T02:51:41.552Z,18.5
2022-09-07T02:52:44.421Z,18.5
2022-09-07T02:53:46.981Z,18.5
2022-09-07T02:54:50.120Z,18.5
2022-09-07T02:55:53.202Z,18.5
2022-09-07T02:56:56.624Z,18.5
2022-09-07T02:57:59.417Z,18.5
2022-09-07T02:59:02.201Z,18.5
2022-09-07T03:00:05.061Z,18.5
2022-09-07T03:01:08.788Z,18.4
2022-09-07T03:02:11.973Z,18.4
2022-09-07T03:03:15.326Z,18.4
2022-09-07T03:04:18.438Z,18.4
2022-09-07T03:05:20.956Z,18.4
2022-09-07T03:06:24.384Z,18.4
2022-09-07T03:07:27.374Z,18.4
2022-09-07T03:08:30.575Z,18.4
2022-09-07T03:09:33.835Z,18.4
2022-09-07T03:10:36.982Z,18.4
2022-09-07T03:11:40.155Z,18.4
2022-09-07T03:12:43.023Z,18.4
2022-09-07T03:13:46.435Z,18.4
2022-09-07T03:14:49.579Z,18.4
2022-09-07T03:15:56.934Z,18.4
2022-09-07T03:16:59.834Z,18.4
2022-09-07T03:18:03.275Z,18.4
2022-09-07T03:19:06.626Z,18.4
2022-09-07T03:20:09.782Z,18.4
2022-09-07T03:21:12.413Z,18.4
2022-09-07T03:22:15.591Z,18.4
2022-09-07T03:23:18.471Z,18.4
2022-09-07T03:24:21.699Z,18.4
2022-09-07T03:25:24.832Z,18.4
2022-09-07T03:26:27.914Z,18.4
2022-09-07T03:27:30.791Z,18.4
2022-09-07T03:28:33.230Z,18.4
2022-09-07T03:29:42.627Z,18.5
2022-09-07T03:30:46.227Z,18.4
2022-09-07T03:31:48.921Z,18.4
2022-09-07T03:32:51.910Z,18.4
2022-09-07T03:33:55.067Z,18.4
2022-09-07T03:34:58.544Z,18.4
2022-09-07T03:36:01.416Z,18.5
2022-09-07T03:37:04.498Z,18.4
2022-09-07T03:38:07.009Z,18.4
2022-09-07T03:39:10.699Z,18.4
2022-09-07T03:40:14.450Z,18.4
2022-09-07T03:41:17.854Z,18.4
2022-09-07T03:42:20.719Z,18.4
2022-09-07T03:43:23.712Z,18.4
2022-09-07T03:44:26.652Z,18.4
2022-09-07T03:45:29.239Z,18.4
2022-09-07T03:46:32.723Z,18.4
2022-09-07T03:47:36.513Z,18.4
2022-09-07T03:48:39.783Z,18.3
2022-09-07T03:49:43.333Z,18.3
2022-09-07T03:50:46.122Z,18.3
2022-09-07T03:51:48.717Z,18.3
2022-09-07T03:52:51.871Z,18.3
2022-09-07T03:53:54.834Z,18.3
2022-09-07T03:54:57.985Z,18.3
2022-09-07T03:56:00.780Z,18.3
2022-09-07T03:57:03.566Z,18.3
2022-09-07T03:58:06.070Z,18.2
2022-09-07T03:59:08.505Z,18.2
2022-09-07T04:00:11.301Z,18.3
2022-09-07T04:01:14.621Z,18.2
2022-09-07T04:02:18.417Z,18.3
2022-09-07T04:03:21.225Z,18.3
2022-09-07T04:04:24.169Z,18.2
2022-09-07T04:05:27.237Z,18.2
2022-09-07T04:06:29.839Z,18.2
2022-09-07T04:07:33.571Z,18.2
2022-09-07T04:08:36.903Z,18.2
2022-09-07T04:09:39.692Z,18.2
2022-09-07T04:10:42.847Z,18.2
2022-09-07T04:11:45.778Z,18.2
2022-09-07T04:12:49.208Z,18.2
2022-09-07T04:13:52.352Z,18.2
2022-09-07T04:14:55.413Z,18.2
2022-09-07T04:15:58.275Z,18.2
2022-09-07T04:17:01.391Z,18.2
2022-09-07T04:18:05.120Z,18.2
2022-09-07T04:19:08.271Z,18.2
2022-09-07T04:20:11.066Z,18.2
2022-09-07T04:21:14.037Z,18.2
2022-09-07T04:22:17.303Z,18.2
2022-09-07T04:23:20.610Z,18.2
2022-09-07T04:24:23.402Z,18.2
2022-09-07T04:25:26.109Z,18.2
2022-09-07T04:26:28.500Z,18.2
2022-09-07T04:27:31.387Z,18.2
2022-09-07T04:28:34.062Z,18.2
2022-09-07T04:29:36.929Z,18.2
2022-09-07T04:30:40.572Z,18.2
2022-09-07T04:31:43.999Z,18.2
2022-09-07T04:32:47.437Z,18.2
2022-09-07T04:33:50.325Z,18.2
2022-09-07T04:34:53.490Z,18.2
2022-09-07T04:35:56.113Z,18.2
2022-09-07T04:36:59.466Z,18.2
2022-09-07T04:38:02.423Z,18.2
2022-09-07T04:39:05.503Z,18.2
2022-09-07T04:40:09.113Z,18.1
2022-09-07T04:41:12.448Z,18.2
2022-09-07T04:42:16.096Z,18.2
2022-09-07T04:43:19.162Z,18.2
2022-09-07T04:44:22.331Z,18.1
2022-09-07T04:45:25.860Z,18.1
2022-09-07T04:46:28.889Z,18.1
2022-09-07T04:47:32.580Z,18.1
2022-09-07T04:48:34.882Z,18.1
2022-09-07T04:49:38.049Z,18.1
2022-09-07T04:50:40.834Z,18.1
2022-09-07T04:51:43.563Z,18.1
2022-09-07T04:52:47.023Z,18.1
2022-09-07T04:53:50.372Z,18
2022-09-07T04:54:53.440Z,18.1
2022-09-07T04:55:56.664Z,18
2022-09-07T04:56:59.804Z,18.1
2022-09-07T04:58:02.945Z,18.1
2022-09-07T04:59:05.745Z,18
2022-09-07T05:00:08.561Z,18.1
2022-09-07T05:01:11.836Z,18.1
2022-09-07T05:02:15.725Z,18.1
2022-09-07T05:03:19.356Z,18.1
2022-09-07T05:04:22.666Z,18.1
2022-09-07T05:05:25.841Z,18.1
2022-09-07T05:06:28.739Z,18.1
2022-09-07T05:07:31.250Z,18.1
2022-09-07T05:08:34.390Z,18.1
2022-09-07T05:09:37.194Z,18.1
2022-09-07T05:10:39.631Z,18.1
2022-09-07T05:11:42.704Z,18.1
2022-09-07T05:12:45.777Z,18.1
2022-09-07T05:13:49.473Z,18.1
2022-09-07T05:14:51.714Z,18.1
2022-09-07T05:15:54.838Z,18.1
2022-09-07T05:16:58.300Z,18.1
2022-09-07T05:18:02.051Z,18.1
2022-09-07T05:19:04.962Z,18.1
2022-09-07T05:20:08.122Z,18.1
2022-09-07T05:21:10.910Z,18.1
2022-09-07T05:22:13.226Z,18.1
2022-09-07T05:23:16.956Z,18.1
2022-09-07T05:24:19.942Z,18.1
2022-09-07T05:25:23.101Z,18.2
2022-09-07T05:26:26.118Z,18.2
2022-09-07T05:27:28.988Z,18.2
2022-09-07T05:28:33.047Z,18.2
2022-09-07T05:30:07.454Z,18.2
2022-09-07T05:32:16.034Z,18.2
2022-09-07T05:33:18.272Z,18.2
2022-09-07T05:34:36.428Z,18.2
2022-09-07T05:35:39.498Z,18.2
2022-09-07T05:36:43.022Z,18.2
2022-09-07T05:37:46.120Z,18.2
2022-09-07T05:38:49.276Z,18.2
2022-09-07T05:39:51.974Z,18.2
2022-09-07T05:40:54.825Z,18.2
2022-09-07T05:41:57.916Z,18.2
2022-09-07T05:43:00.734Z,18.2
2022-09-07T05:44:49.350Z,18.2
2022-09-07T05:45:52.481Z,18.2
2022-09-07T05:46:55.720Z,18.3
2022-09-07T05:47:58.233Z,18.2
2022-09-07T05:49:00.827Z,18.3
2022-09-07T05:50:04.545Z,18.3
2022-09-07T05:51:07.205Z,18.3
2022-09-07T05:52:10.267Z,18.3
2022-09-07T05:53:13.499Z,18.3
2022-09-07T05:54:16.564Z,18.3
2022-09-07T05:55:31.093Z,18.3
2022-09-07T05:56:34.241Z,18.3
2022-09-07T05:57:37.133Z,18.3
2022-09-07T05:58:40.085Z,18.3
2022-09-07T05:59:42.957Z,18.3
2022-09-07T06:00:46.174Z,18.3
2022-09-07T06:01:49.779Z,18.4
2022-09-07T06:02:53.271Z,18.4
2022-09-07T06:03:56.871Z,18.4
2022-09-07T06:05:00.026Z,18.4
2022-09-07T06:06:02.813Z,18.4
2022-09-07T06:07:23.847Z,18.4
2022-09-07T06:08:26.633Z,18.4
2022-09-07T06:09:31.460Z,18.4
2022-09-07T06:11:44.332Z,18.5
2022-09-07T06:12:49.993Z,18.4
2022-09-07T06:13:52.316Z,18.4
2022-09-07T06:14:55.099Z,18.5
2022-09-07T06:15:58.284Z,18.5
2022-09-07T06:17:00.956Z,18.5
2022-09-07T06:18:04.091Z,18.5
2022-09-07T06:19:06.618Z,18.5
2022-09-07T06:20:09.788Z,18.5
2022-09-07T06:21:12.856Z,18.5
2022-09-07T06:22:16.010Z,18.5
2022-09-07T06:23:18.899Z,18.5
2022-09-07T06:24:21.491Z,18.5
2022-09-07T06:25:24.644Z,18.5
2022-09-07T06:26:27.236Z,18.5
2022-09-07T06:27:30.612Z,18.5
2022-09-07T06:28:33.743Z,18.5
2022-09-07T06:29:36.808Z,18.5
2022-09-07T06:30:39.945Z,18.5
2022-09-07T06:33:47.809Z,18.5
2022-09-07T06:34:51.190Z,18.5
2022-09-07T06:35:54.340Z,18.5
2022-09-07T06:36:56.927Z,18.5
2022-09-07T06:38:00.098Z,18.5
2022-09-07T06:39:03.163Z,18.5
2022-09-07T06:40:06.459Z,18.6
2022-09-07T06:42:09.760Z,18.6
2022-09-07T06:43:13.054Z,18.6
2022-09-07T06:44:15.851Z,18.6
2022-09-07T06:45:19.346Z,18.6
2022-09-07T06:47:07.715Z,18.6
2022-09-07T06:48:11.295Z,18.6
2022-09-07T06:49:14.403Z,18.6
2022-09-07T06:50:17.662Z,18.6
2022-09-07T06:51:20.451Z,18.6
2022-09-07T06:52:24.217Z,18.6
2022-09-07T06:53:34.274Z,18.6
2022-09-07T06:56:03.793Z,18.6
2022-09-07T06:57:07.221Z,18.6
2022-09-07T06:58:09.827Z,18.6
2022-09-07T06:59:13.201Z,18.7
2022-09-07T07:00:16.932Z,18.7
2022-09-07T07:01:20.005Z,18.7
2022-09-07T07:02:23.151Z,18.7
2022-09-07T07:03:26.039Z,18.7
2022-09-07T07:04:29.711Z,18.7
2022-09-07T07:05:32.865Z,18.8
2022-09-07T07:06:35.086Z,18.8
2022-09-07T07:07:38.231Z,18.8
2022-09-07T07:08:41.360Z,18.8
2022-09-07T07:09:44.710Z,18.9
2022-09-07T07:10:47.299Z,18.9
2022-09-07T07:11:50.443Z,18.9
2022-09-07T07:12:53.021Z,19
2022-09-07T07:13:55.968Z,19
2022-09-07T07:14:58.147Z,19.1
2022-09-07T07:16:00.670Z,19.1
2022-09-07T07:17:04.043Z,19.2
2022-09-07T07:18:22.022Z,19.2
2022-09-07T07:19:24.803Z,19.2
2022-09-07T07:20:27.251Z,19.2
2022-09-07T07:22:23.724Z,19.3
2022-09-07T07:23:49.868Z,19.3
2022-09-07T07:24:52.939Z,19.3
2022-09-07T07:25:55.714Z,19.3
2022-09-07T07:26:58.846Z,19.4
2022-09-07T07:30:01.394Z,19.4
2022-09-07T07:31:13.470Z,19.4
2022-09-07T07:32:16.553Z,19.4
2022-09-07T07:33:19.409Z,19.4
2022-09-07T07:34:23.330Z,19.4
2022-09-07T07:35:27.736Z,19.4
2022-09-07T07:36:30.812Z,19.4
2022-09-07T07:37:33.612Z,19.4
2022-09-07T07:39:07.611Z,19.5
2022-09-07T07:43:03.020Z,19.5
2022-09-07T07:44:06.338Z,19.5
2022-09-07T07:45:54.910Z,19.5
2022-09-07T07:46:59.360Z,19.4
2022-09-07T07:48:02.688Z,19.4
2022-09-07T07:49:05.498Z,19.4
2022-09-07T07:50:38.955Z,19.4
2022-09-07T07:52:50.185Z,19.4
2022-09-07T07:54:56.377Z,19.4
2022-09-07T07:56:00.103Z,19.4
2022-09-07T07:57:03.009Z,19.4
2022-09-07T07:58:05.883Z,19.5
2022-09-07T07:59:16.334Z,19.5
2022-09-07T08:00:56.019Z,19.5
2022-09-07T08:02:01.833Z,19.5
2022-09-07T08:03:05.682Z,19.6
2022-09-07T08:04:08.039Z,19.6
2022-09-07T08:05:11.652Z,19.6
2022-09-07T08:06:14.991Z,19.6
2022-09-07T08:07:18.771Z,19.6
2022-09-07T08:08:21.829Z,19.6
2022-09-07T08:09:24.895Z,19.6
2022-09-07T08:10:27.408Z,19.7
2022-09-07T08:11:30.554Z,19.7
2022-09-07T08:12:33.407Z,19.7
2022-09-07T08:13:36.203Z,19.7
2022-09-07T08:14:39.629Z,19.7
2022-09-07T08:15:42.251Z,19.7
2022-09-07T08:16:45.997Z,19.7
2022-09-07T08:17:49.087Z,19.7
2022-09-07T08:18:51.961Z,19.7
2022-09-07T08:19:54.872Z,19.7
2022-09-07T08:20:58.221Z,19.7
2022-09-07T08:22:01.364Z,19.8
2022-09-07T08:23:05.249Z,19.8
2022-09-07T08:24:08.337Z,19.8
2022-09-07T08:25:11.682Z,19.8
2022-09-07T08:26:13.923Z,19.9
2022-09-07T08:27:16.921Z,19.9
2022-09-07T08:28:18.814Z,20
2022-09-07T08:29:21.605Z,20
2022-09-07T08:30:24.756Z,20
2022-09-07T08:31:27.772Z,20
2022-09-07T08:32:30.824Z,20.1
2022-09-07T08:33:33.884Z,20.1
2022-09-07T08:34:37.341Z,20.1
2022-09-07T08:35:40.886Z,20.2
2022-09-07T08:36:43.970Z,20.2
2022-09-07T08:37:47.629Z,20.2
2022-09-07T08:38:51.844Z,20.3
2022-09-07T08:39:55.120Z,20.2
2022-09-07T08:40:58.507Z,20.3
2022-09-07T08:42:01.410Z,20.3
2022-09-07T08:43:04.888Z,20.4
2022-09-07T08:44:07.748Z,20.4
2022-09-07T08:45:10.562Z,20.4
2022-09-07T08:46:14.184Z,20.4
2022-09-07T08:47:17.844Z,20.4
2022-09-07T08:48:20.918Z,20.5
2022-09-07T08:49:24.555Z,20.5
2022-09-07T08:50:28.201Z,20.5
2022-09-07T08:51:31.398Z,20.5
2022-09-07T08:52:34.673Z,20.5
2022-09-07T08:53:37.537Z,20.6
2022-09-07T08:54:41.613Z,20.6
2022-09-07T08:55:45.047Z,20.6
2022-09-07T08:57:21.753Z,20.7
2022-09-07T08:58:50.724Z,20.7
2022-09-07T08:59:54.417Z,20.8
2022-09-07T09:01:32.455Z,20.8
2022-09-07T09:06:12.419Z,20.8
2022-09-07T09:07:17.333Z,20.9
2022-09-07T09:08:21.100Z,21
2022-09-07T09:09:24.021Z,21
2022-09-07T09:10:27.791Z,21
2022-09-07T09:11:30.232Z,21
2022-09-07T09:12:38.551Z,21.1
2022-09-07T09:13:41.624Z,21.1
2022-09-07T09:14:44.764Z,21.1
2022-09-07T09:15:48.293Z,21.2
2022-09-07T09:16:51.675Z,21.2
2022-09-07T09:17:55.135Z,21.2
2022-09-07T09:18:58.246Z,21.2
2022-09-07T09:20:01.701Z,21.2
2022-09-07T09:21:05.126Z,21.2
2022-09-07T09:22:08.058Z,21.2
2022-09-07T09:23:11.509Z,21.2
2022-09-07T09:24:14.937Z,21.2
2022-09-07T09:25:18.103Z,21.2
2022-09-07T09:26:22.241Z,21.2
2022-09-07T09:27:25.417Z,21.2
2022-09-07T09:28:33.438Z,21.3
2022-09-07T09:29:38.467Z,21.3
2022-09-07T09:30:41.536Z,21.3
2022-09-07T09:31:44.408Z,21.3
2022-09-07T09:32:47.983Z,21.3
2022-09-07T09:33:51.485Z,21.3
2022-09-07T09:34:54.565Z,21.3
2022-09-07T09:35:57.734Z,21.3
2022-09-07T09:37:00.802Z,21.3
2022-09-07T09:38:04.227Z,21.4
2022-09-07T09:39:07.396Z,21.4
2022-09-07T09:40:10.920Z,21.4
2022-09-07T09:41:13.906Z,21.5
2022-09-07T09:42:18.063Z,21.5
2022-09-07T09:43:21.440Z,21.5
2022-09-07T09:44:24.513Z,21.6
2022-09-07T09:45:28.344Z,21.6
2022-09-07T09:46:32.969Z,21.6
2022-09-07T09:47:36.662Z,21.6
2022-09-07T09:48:39.992Z,21.6
2022-09-07T09:49:43.720Z,21.7
2022-09-07T09:53:54.565Z,21.7
2022-09-07T09:55:35.278Z,21.7
2022-09-07T09:56:40.216Z,21.7
2022-09-07T09:59:56.614Z,21.7
2022-09-07T10:01:31.441Z,21.7
2022-09-07T10:04:56.133Z,21.7
2022-09-07T10:05:58.869Z,21.7
2022-09-07T10:07:02.328Z,21.7
2022-09-07T10:08:05.542Z,21.7
2022-09-07T10:09:08.719Z,21.7
2022-09-07T10:10:11.911Z,21.7
2022-09-07T10:11:15.205Z,21.7
2022-09-07T10:12:18.926Z,21.7
2022-09-07T10:13:23.006Z,21.7
2022-09-07T10:14:25.805Z,21.7
2022-09-07T10:15:28.423Z,21.7
2022-09-07T10:16:32.222Z,21.7
2022-09-07T10:17:35.842Z,21.6
2022-09-07T10:18:38.990Z,21.6
2022-09-07T10:19:42.344Z,21.6
2022-09-07T10:20:45.497Z,21.6
2022-09-07T10:21:48.404Z,21.6
2022-09-07T10:22:52.613Z,21.5
2022-09-07T10:23:55.780Z,21.5
2022-09-07T10:24:58.875Z,21.5
2022-09-07T10:26:01.941Z,21.5
2022-09-07T10:27:05.491Z,21.5
2022-09-07T10:28:08.917Z,21.4
2022-09-07T10:29:14.491Z,21.4
2022-09-07T10:30:19.271Z,21.3
2022-09-07T10:31:22.720Z,21.3
2022-09-07T10:32:25.838Z,21.2
2022-09-07T10:33:28.231Z,21.1
2022-09-07T10:34:31.228Z,21
2022-09-07T10:35:34.177Z,20.9
2022-09-07T10:36:36.888Z,20.9
2022-09-07T10:37:39.870Z,20.8
2022-09-07T10:38:42.958Z,20.7
2022-09-07T10:39:46.805Z,20.6
2022-09-07T10:40:50.393Z,20.6
2022-09-07T10:41:53.900Z,20.5
2022-09-07T10:43:27.006Z,20.4
2022-09-07T10:44:31.025Z,20.3
2022-09-07T10:45:34.362Z,20.2
2022-09-07T10:47:07.258Z,20.1
2022-09-07T10:48:11.208Z,20
2022-09-07T10:49:14.288Z,20
2022-09-07T10:50:24.696Z,19.9
2022-09-07T10:51:28.156Z,19.8
2022-09-07T10:52:31.337Z,19.7
2022-09-07T10:53:43.899Z,19.7
2022-09-07T10:54:48.714Z,19.7
2022-09-07T10:55:52.875Z,19.6
2022-09-07T10:56:55.695Z,19.6
2022-09-07T10:57:58.553Z,19.6
2022-09-07T10:59:05.058Z,19.5
2022-09-07T11:00:11.215Z,19.5
2022-09-07T11:01:15.451Z,19.4
2022-09-07T11:02:19.136Z,19.4
2022-09-07T11:03:29.729Z,19.4
2022-09-07T11:04:33.210Z,19.4
2022-09-07T11:05:39.429Z,19.4
2022-09-07T11:06:43.041Z,19.4
2022-09-07T11:07:46.259Z,19.4
2022-09-07T11:09:20.557Z,19.4
2022-09-07T11:10:24.226Z,19.4
2022-09-07T11:12:03.553Z,19.4
2022-09-07T11:13:07.449Z,19.4
2022-09-07T11:14:14.721Z,19.5
2022-09-07T11:15:18.873Z,19.4
2022-09-07T11:16:52.278Z,19.4
2022-09-07T11:17:56.042Z,19.4
2022-09-07T11:19:38.022Z,19.4
2022-09-07T11:20:41.261Z,19.4
2022-09-07T11:21:59.685Z,19.4
2022-09-07T11:23:03.322Z,19.4
2022-09-07T11:24:05.911Z,19.4
2022-09-07T11:25:38.981Z,19.4
2022-09-07T11:26:42.273Z,19.4
2022-09-07T11:27:45.185Z,19.4
2022-09-07T11:29:29.611Z,19.4
2022-09-07T11:30:33.918Z,19.5
2022-09-07T11:31:38.885Z,19.5
2022-09-07T11:32:42.270Z,19.5
2022-09-07T11:34:25.521Z,19.5
2022-09-07T11:35:28.600Z,19.5
2022-09-07T11:36:31.952Z,19.5
2022-09-07T11:37:35.428Z,19.5
2022-09-07T11:38:38.867Z,19.5
2022-09-07T11:39:42.116Z,19.5
2022-09-07T11:40:45.043Z,19.6
2022-09-07T11:41:48.772Z,19.6
2022-09-07T11:42:51.158Z,19.6
2022-09-07T11:43:54.625Z,19.7
2022-09-07T11:44:57.780Z,19.7
2022-09-07T11:46:02.231Z,19.7
2022-09-07T11:47:05.927Z,19.7
2022-09-07T11:48:08.877Z,19.8
2022-09-07T11:49:12.312Z,19.8
2022-09-07T11:50:15.768Z,19.8
2022-09-07T11:51:19.472Z,19.9
2022-09-07T11:52:23.208Z,20
2022-09-07T11:53:25.894Z,20
2022-09-07T11:54:29.243Z,20.1
2022-09-07T11:55:32.240Z,20.2
2022-09-07T11:56:38.045Z,20.3
2022-09-07T11:57:41.412Z,20.4
2022-09-07T11:58:44.489Z,20.4
2022-09-07T11:59:47.084Z,20.6
2022-09-07T12:00:50.261Z,20.6
2022-09-07T12:01:54.433Z,20.7
2022-09-07T12:03:01.485Z,20.8
2022-09-07T12:04:05.005Z,20.9
2022-09-07T12:05:08.653Z,21
2022-09-07T12:06:11.639Z,21.1
2022-09-07T12:07:14.433Z,21.3
2022-09-07T12:08:17.572Z,21.4
2022-09-07T12:09:21.230Z,21.5
2022-09-07T12:10:24.861Z,21.6
2022-09-07T12:11:27.727Z,21.8
2022-09-07T12:12:30.533Z,21.9
2022-09-07T12:13:34.262Z,22
2022-09-07T12:14:37.394Z,22.2
2022-09-07T12:15:40.714Z,22.3
2022-09-07T12:16:44.212Z,22.4
2022-09-07T12:17:48.386Z,22.6
2022-09-07T12:18:50.936Z,22.8
2022-09-07T12:19:53.243Z,22.9
2022-09-07T12:20:56.321Z,23.1
2022-09-07T12:22:00.242Z,23.2
2022-09-07T12:23:06.388Z,23.4
2022-09-07T12:24:09.477Z,23.5
2022-09-07T12:25:12.578Z,23.7
2022-09-07T12:26:15.103Z,23.8
2022-09-07T12:27:17.336Z,24
2022-09-07T12:28:22.882Z,24.1
2022-09-07T12:29:26.340Z,24.2
2022-09-07T12:30:29.512Z,24.3
2022-09-07T12:32:08.520Z,24.4
2022-09-07T12:34:01.667Z,24.5
2022-09-07T12:35:04.175Z,24.6
2022-09-07T12:36:07.043Z,24.7
2022-09-07T12:37:13.513Z,24.7
2022-09-07T12:38:16.185Z,24.7
2022-09-07T12:39:19.917Z,24.7
2022-09-07T12:40:22.720Z,24.7
2022-09-07T12:41:25.789Z,24.7
2022-09-07T12:42:38.490Z,24.7
2022-09-07T12:43:41.355Z,24.7
2022-09-07T12:44:44.070Z,24.7
2022-09-07T12:45:47.470Z,24.7
2022-09-07T12:46:50.447Z,24.7
2022-09-07T12:47:53.448Z,24.8
2022-09-07T12:48:56.950Z,24.8
2022-09-07T12:50:00.809Z,24.8
2022-09-07T12:51:04.737Z,24.9
2022-09-07T12:52:16.796Z,24.9
2022-09-07T12:53:20.178Z,25
2022-09-07T12:54:22.979Z,25
2022-09-07T12:55:30.948Z,25
2022-09-07T12:56:35.811Z,25.1
2022-09-07T12:57:39.195Z,25.2
2022-09-07T12:58:42.358Z,25.3
2022-09-07T12:59:46.615Z,25.3
2022-09-07T13:00:49.145Z,25.4
2022-09-07T13:01:52.341Z,25.4
2022-09-07T13:02:57.524Z,25.5
2022-09-07T13:04:01.324Z,25.5
2022-09-07T13:05:06.300Z,25.6
2022-09-07T13:06:10.707Z,25.6
2022-09-07T13:07:14.080Z,25.7
2022-09-07T13:08:17.256Z,25.7
2022-09-07T13:09:21.074Z,25.7
2022-09-07T13:10:24.806Z,25.7
2022-09-07T13:11:27.873Z,25.8
2022-09-07T13:13:00.024Z,25.7
2022-09-07T13:14:12.187Z,25.7
2022-09-07T13:15:24.876Z,25.7
2022-09-07T13:16:29.205Z,25.7
2022-09-07T13:17:34.222Z,25.7
2022-09-07T13:18:37.695Z,25.7
2022-09-07T13:19:42.026Z,25.6
2022-09-07T13:20:46.438Z,25.6
2022-09-07T13:21:49.621Z,25.6
2022-09-07T13:22:52.614Z,25.6
2022-09-07T13:23:57.344Z,25.5
2022-09-07T13:25:01.222Z,25.5
2022-09-07T13:26:04.552Z,25.5
2022-09-07T13:27:08.008Z,25.5
2022-09-07T13:28:11.710Z,25.5
2022-09-07T13:29:14.841Z,25.5
2022-09-07T13:30:17.775Z,25.5
2022-09-07T13:31:22.869Z,25.5
2022-09-07T13:33:09.491Z,25.4
2022-09-07T13:34:12.597Z,25.4
2022-09-07T13:35:16.059Z,25.3
2022-09-07T13:36:20.020Z,25.2
2022-09-07T13:37:23.099Z,25.2
2022-09-07T13:38:25.890Z,25.1
2022-09-07T13:39:29.428Z,25.1
2022-09-07T13:40:33.320Z,25.1
2022-09-07T13:41:36.498Z,25
2022-09-07T13:42:39.025Z,25
2022-09-07T13:43:41.894Z,25
2022-09-07T13:44:44.694Z,25
2022-09-07T13:45:48.883Z,25
2022-09-07T13:46:52.550Z,25
2022-09-07T13:47:56.170Z,25
2022-09-07T13:48:59.257Z,25.1
2022-09-07T13:50:02.710Z,25.1
2022-09-07T13:51:05.886Z,25.2
2022-09-07T13:52:10.069Z,25.2
2022-09-07T13:53:13.797Z,25.3
2022-09-07T13:54:16.746Z,25.4
2022-09-07T13:55:26.594Z,25.5
2022-09-07T13:56:30.241Z,25.5
2022-09-07T13:57:33.030Z,25.6
2022-09-07T13:58:36.189Z,25.7
2022-09-07T13:59:39.059Z,25.8
2022-09-07T14:00:42.674Z,25.9
2022-09-07T14:01:45.624Z,26
2022-09-07T14:02:55.883Z,26
2022-09-07T14:04:00.579Z,26.1
2022-09-07T14:05:03.729Z,26.2
2022-09-07T14:06:07.460Z,26.2
2022-09-07T14:07:10.922Z,26.3
2022-09-07T14:08:15.009Z,26.3
2022-09-07T14:09:18.085Z,26.4
2022-09-07T14:10:21.446Z,26.4
2022-09-07T14:11:24.116Z,26.5
2022-09-07T14:12:27.855Z,26.5
2022-09-07T14:13:30.951Z,26.6
2022-09-07T14:14:34.275Z,26.6
2022-09-07T14:15:37.700Z,26.6
2022-09-07T14:16:41.173Z,26.7
2022-09-07T14:17:44.510Z,26.7
2022-09-07T14:18:47.419Z,26.8
2022-09-07T14:19:50.566Z,26.9
2022-09-07T14:20:53.718Z,26.9
2022-09-07T14:21:56.895Z,27
2022-09-07T14:22:59.694Z,27
2022-09-07T14:24:03.834Z,27.1
2022-09-07T14:25:07.561Z,27.2
2022-09-07T14:26:19.547Z,27.2
2022-09-07T14:27:22.441Z,27.3
2022-09-07T14:28:26.119Z,27.4
2022-09-07T14:29:28.626Z,27.5
2022-09-07T14:30:31.913Z,27.5
2022-09-07T14:31:35.743Z,27.6
2022-09-07T14:32:39.092Z,27.7
2022-09-07T14:33:47.557Z,27.7
2022-09-07T14:34:50.537Z,27.8
2022-09-07T14:35:53.902Z,27.9
2022-09-07T14:36:57.422Z,27.9
2022-09-07T14:38:00.520Z,28
2022-09-07T14:39:06.813Z,28.1
2022-09-07T14:40:09.891Z,28.1
2022-09-07T14:41:12.796Z,28.2
2022-09-07T14:42:16.195Z,28.2
2022-09-07T14:43:19.607Z,28.3
2022-09-07T14:44:22.709Z,28.4
2022-09-07T14:45:25.694Z,28.4
2022-09-07T14:46:27.721Z,28.4
2022-09-07T14:47:31.305Z,28.5
2022-09-07T14:48:38.675Z,28.5
2022-09-07T14:49:44.476Z,28.6